Time;durP1;ratioP1;P1;durP2;ratioP2;P2;SDS_P1;SDS_P2;PMS_P1;PMS_P2;Temp;Humidity;BMP_temperature;BMP_pressure;BME280_temperature;BME280_humidity;BME280_pressure;Samples;Min_cycle;Max_cycle;Signal;HPM_P1;HPM_P2
2023/06/17 00:02:51;;;;;;;18.00;9.83;;;;;;;13.35;100.00;100844.78;6043215;28;20099;-66
2023/06/17 00:05:46;;;;;;;16.60;9.77;;;;;;;13.18;100.00;100832.38;6053129;28;20105;-66
2023/06/17 00:08:41;;;;;;;18.27;10.37;;;;;;;13.17;100.00;100833.41;6053642;28;20101;-66
2023/06/17 00:11:37;;;;;;;16.30;9.80;;;;;;;13.15;100.00;100840.72;6053252;28;20021;-66
2023/06/17 00:14:33;;;;;;;17.40;9.98;;;;;;;13.17;100.00;100841.38;6052614;28;20045;-66
2023/06/17 00:17:32;;;;;;;17.83;10.18;;;;;;;13.10;100.00;100833.19;6053187;28;20461;-66
2023/06/17 00:20:27;;;;;;;16.95;9.80;;;;;;;13.21;100.00;100847.22;6053464;28;20032;-66
2023/06/17 00:23:23;;;;;;;16.93;10.20;;;;;;;13.08;100.00;100829.00;6036685;28;20034;-66
2023/06/17 00:26:18;;;;;;;18.80;10.63;;;;;;;13.10;100.00;100843.00;6038446;28;20679;-66
2023/06/17 00:29:15;;;;;;;16.93;9.47;;;;;;;13.25;100.00;100829.94;6053240;28;20034;-65
2023/06/17 00:32:10;;;;;;;18.55;10.77;;;;;;;13.37;100.00;100844.63;6051219;28;20040;-66
2023/06/17 00:35:06;;;;;;;20.03;10.53;;;;;;;13.76;100.00;100832.41;6049123;28;20034;-66
2023/06/17 00:38:01;;;;;;;18.17;10.95;;;;;;;13.92;100.00;100845.78;6043125;28;20484;-66
2023/06/17 00:40:56;;;;;;;14.73;8.88;;;;;;;13.62;100.00;100841.88;6052100;28;20046;-66
2023/06/17 00:43:52;;;;;;;20.83;9.70;;;;;;;13.67;100.00;100838.72;6042975;28;20046;-66
2023/06/17 00:46:50;;;;;;;17.70;11.23;;;;;;;13.97;100.00;100846.09;6042477;28;20512;-66
2023/06/17 00:49:46;;;;;;;17.88;11.32;;;;;;;14.24;100.00;100835.13;6067475;28;20471;-66
2023/06/17 00:52:42;;;;;;;16.60;9.90;;;;;;;14.36;100.00;100841.00;6060940;28;20030;-67
2023/06/17 00:55:39;;;;;;;19.13;10.95;;;;;;;14.45;100.00;100845.34;6062668;28;20080;-67
2023/06/17 00:58:35;;;;;;;17.50;11.45;;;;;;;14.28;100.00;100839.16;6066295;28;20424;-66
2023/06/17 01:01:31;;;;;;;15.02;9.40;;;;;;;13.87;100.00;100839.25;6047940;28;20022;-67
2023/06/17 01:04:28;;;;;;;15.73;9.27;;;;;;;13.59;100.00;100841.34;6032754;28;20036;-66
2023/06/17 01:07:35;;;;;;;15.32;9.07;;;;;;;13.32;100.00;100837.09;6049841;28;20261;-66
2023/06/17 01:10:37;;;;;;;14.65;9.75;;;;;;;13.03;100.00;100823.31;6042868;28;20053;-66
2023/06/17 01:13:34;;;;;;;14.73;8.88;;;;;;;12.88;100.00;100819.59;6063412;28;20034;-67
2023/06/17 01:16:32;;;;;;;17.90;10.20;;;;;;;12.75;100.00;100824.47;6032952;28;20116;-66
2023/06/17 01:19:27;;;;;;;15.00;10.13;;;;;;;12.69;100.00;100825.13;6039000;28;20029;-66
2023/06/17 01:22:23;;;;;;;18.13;10.70;;;;;;;12.60;100.00;100836.69;6067008;28;20041;-66
2023/06/17 01:25:20;;;;;;;17.27;10.60;;;;;;;12.75;100.00;100833.28;6045989;28;20264;-66
2023/06/17 01:28:17;;;;;;;21.27;12.05;;;;;;;13.29;100.00;100826.78;6053022;28;20465;-66
2023/06/17 01:31:12;;;;;;;22.20;12.05;;;;;;;13.52;100.00;100819.03;6054958;28;20597;-66
2023/06/17 01:34:08;;;;;;;22.70;12.30;;;;;;;13.53;100.00;100816.19;6053715;28;20026;-66
2023/06/17 01:37:11;;;;;;;19.38;11.23;;;;;;;13.26;100.00;100813.81;6031818;28;20810;-66
2023/06/17 01:40:10;;;;;;;22.85;11.93;;;;;;;13.60;100.00;100821.72;6045505;28;20417;-66
2023/06/17 01:43:06;;;;;;;22.23;12.00;;;;;;;13.82;100.00;100825.59;6064193;28;20101;-66
2023/06/17 01:46:01;;;;;;;20.20;11.18;;;;;;;13.42;100.00;100824.50;6050958;28;20022;-66
2023/06/17 01:48:57;;;;;;;17.67;10.38;;;;;;;13.34;100.00;100828.97;6051289;28;20036;-65
2023/06/17 01:51:52;;;;;;;18.65;11.50;;;;;;;13.21;100.00;100823.28;6051097;28;20034;-65
2023/06/17 01:54:47;;;;;;;19.03;10.33;;;;;;;12.94;100.00;100818.94;6050668;28;20052;-67
2023/06/17 01:57:43;;;;;;;20.80;11.90;;;;;;;13.22;100.00;100822.25;6050845;28;20460;-65
2023/06/17 02:00:38;;;;;;;18.13;10.73;;;;;;;12.85;100.00;100827.88;6051011;28;20025;-65
2023/06/17 02:03:33;;;;;;;19.10;10.30;;;;;;;12.49;100.00;100817.34;6036139;28;21227;-65
2023/06/17 02:06:29;;;;;;;17.80;9.87;;;;;;;12.29;100.00;100818.50;6051071;28;20269;-65
2023/06/17 02:09:24;;;;;;;17.75;10.48;;;;;;;12.43;100.00;100822.44;6045791;28;20113;-65
2023/06/17 02:12:20;;;;;;;18.50;11.40;;;;;;;12.34;100.00;100821.53;6042607;28;20026;-65
2023/06/17 02:15:16;;;;;;;31.00;12.02;;;;;;;12.45;100.00;100802.69;6049990;28;20272;-66
2023/06/17 02:18:14;;;;;;;16.95;10.38;;;;;;;12.64;100.00;100817.59;6050619;28;20030;-66
2023/06/17 02:21:09;;;;;;;22.00;11.85;;;;;;;12.57;100.00;100821.88;6050817;28;20030;-65
2023/06/17 02:24:05;;;;;;;19.37;10.87;;;;;;;12.41;100.00;100819.94;6050063;28;20119;-65
2023/06/17 02:27:01;;;;;;;20.42;12.10;;;;;;;12.12;100.00;100803.41;6022441;28;20376;-65
2023/06/17 02:29:56;;;;;;;19.55;11.18;;;;;;;11.98;100.00;100808.44;6040094;28;20033;-66
2023/06/17 02:32:52;;;;;;;20.33;11.88;;;;;;;12.68;100.00;100810.97;6036359;28;20061;-65
2023/06/17 02:35:48;;;;;;;23.35;12.13;;;;;;;12.80;100.00;100812.38;6038584;28;20034;-64
2023/06/17 02:38:43;;;;;;;18.63;11.43;;;;;;;12.64;100.00;100812.28;6029304;28;20449;-65
2023/06/17 02:41:38;;;;;;;22.40;11.83;;;;;;;12.68;100.00;100805.66;6047926;28;20029;-65
2023/06/17 02:44:35;;;;;;;21.03;11.07;;;;;;;12.85;100.00;100804.75;6049768;28;20076;-66
2023/06/17 02:47:31;;;;;;;20.00;11.63;;;;;;;12.80;100.00;100807.03;6050070;28;20032;-65
2023/06/17 02:50:26;;;;;;;19.27;11.50;;;;;;;12.89;100.00;100797.28;6050112;28;20389;-66
2023/06/17 02:53:22;;;;;;;23.83;11.27;;;;;;;12.84;100.00;100797.75;6049382;28;20034;-66
2023/06/17 02:56:17;;;;;;;17.38;10.30;;;;;;;12.58;100.00;100790.78;6049789;28;20021;-65
2023/06/17 02:59:14;;;;;;;21.83;11.60;;;;;;;12.24;100.00;100798.69;6050096;28;20346;-65
2023/06/17 03:02:10;;;;;;;22.40;11.70;;;;;;;12.14;100.00;100800.63;6049820;28;20308;-65
2023/06/17 03:05:07;;;;;;;23.13;12.13;;;;;;;12.05;100.00;100804.19;6041374;28;20030;-65
2023/06/17 03:08:06;;;;;;;23.25;13.60;;;;;;;12.52;100.00;100803.75;6046905;28;20357;-65
2023/06/17 03:11:02;;;;;;;23.08;12.02;;;;;;;12.88;100.00;100816.91;6026969;28;20046;-65
2023/06/17 03:13:57;;;;;;;21.77;12.95;;;;;;;13.23;100.00;100823.94;6048835;28;20393;-65
2023/06/17 03:16:52;;;;;;;24.63;12.97;;;;;;;13.05;100.00;100800.84;6049594;28;20080;-65
2023/06/17 03:19:48;;;;;;;25.70;13.37;;;;;;;12.93;100.00;100814.63;6049891;28;20261;-65
2023/06/17 03:22:44;;;;;;;28.70;14.40;;;;;;;13.00;100.00;100823.63;6029612;28;20034;-65
2023/06/17 03:25:39;;;;;;;32.63;15.65;;;;;;;13.14;100.00;100841.69;6038888;28;20030;-65
2023/06/17 03:28:35;;;;;;;38.97;16.17;;;;;;;13.05;100.00;100806.19;6034580;28;20041;-65
2023/06/17 03:31:30;;;;;;;44.58;19.17;;;;;;;13.29;100.00;100828.63;6049363;28;20087;-64
2023/06/17 03:34:25;;;;;;;43.20;17.53;;;;;;;13.20;100.00;100805.59;6049129;28;20041;-65
2023/06/17 03:37:21;;;;;;;39.17;17.87;;;;;;;13.28;100.00;100805.63;6029489;28;20023;-64
2023/06/17 03:40:17;;;;;;;45.20;17.50;;;;;;;13.35;100.00;100820.81;6039659;28;20057;-64
2023/06/17 03:43:13;;;;;;;51.20;18.13;;;;;;;13.37;100.00;100815.34;6046779;28;20036;-65
2023/06/17 03:46:08;;;;;;;46.88;17.90;;;;;;;13.28;100.00;100793.16;6048639;28;20264;-65
2023/06/17 03:49:04;;;;;;;46.83;19.07;;;;;;;13.46;100.00;100814.34;6038060;28;20039;-65
2023/06/17 03:51:59;;;;;;;49.28;17.00;;;;;;;13.56;100.00;100823.06;6047437;28;20052;-65
2023/06/17 03:54:55;;;;;;;54.40;18.40;;;;;;;13.44;100.00;100814.53;6040523;28;20068;-65
2023/06/17 03:57:50;;;;;;;54.05;17.90;;;;;;;13.44;100.00;100805.69;6049348;28;20041;-65
2023/06/17 04:00:47;;;;;;;45.00;18.10;;;;;;;13.49;100.00;100812.19;6049114;28;20041;-64
2023/06/17 04:03:43;;;;;;;50.00;17.00;;;;;;;13.52;100.00;100816.38;6021028;28;20033;-65
2023/06/17 04:06:40;;;;;;;47.78;17.60;;;;;;;13.51;100.00;100809.38;6047689;28;20026;-65
2023/06/17 04:09:35;;;;;;;50.00;17.13;;;;;;;13.57;100.00;100808.72;6049364;28;20033;-66
2023/06/17 04:12:30;;;;;;;51.53;18.60;;;;;;;13.59;100.00;100822.69;6035059;28;20046;-65
2023/06/17 04:15:25;;;;;;;51.47;18.17;;;;;;;13.63;100.00;100824.06;6047825;28;20034;-65
2023/06/17 04:18:21;;;;;;;54.30;18.57;;;;;;;13.56;100.00;100809.72;6033649;28;20480;-64
2023/06/17 04:21:16;;;;;;;44.30;17.93;;;;;;;13.67;100.00;100826.22;6048877;28;20088;-65
2023/06/17 04:24:11;;;;;;;54.47;19.57;;;;;;;13.75;100.00;100825.44;6048513;28;20060;-65
2023/06/17 04:27:07;;;;;;;35.30;16.87;;;;;;;13.68;100.00;100821.75;6042454;28;20030;-65
2023/06/17 04:30:06;;;;;;;41.28;18.63;;;;;;;13.69;100.00;100820.75;6044984;28;20386;-65
2023/06/17 04:33:02;;;;;;;34.70;17.60;;;;;;;13.72;100.00;100817.75;6053238;28;20159;-65
2023/06/17 04:35:57;;;;;;;42.63;16.80;;;;;;;13.97;100.00;100834.63;6042089;28;20570;-65
2023/06/17 04:38:53;;;;;;;32.17;17.35;;;;;;;13.90;100.00;100833.59;6050031;28;20026;-65
2023/06/17 04:41:49;;;;;;;31.45;16.25;;;;;;;13.84;100.00;100831.59;6043960;28;20042;-65
2023/06/17 04:44:48;;;;;;;33.88;16.42;;;;;;;13.94;100.00;100829.63;6038023;28;20030;-65
2023/06/17 04:47:44;;;;;;;29.92;15.65;;;;;;;14.04;100.00;100847.13;6052957;28;20462;-65
2023/06/17 04:50:40;;;;;;;33.70;15.40;;;;;;;14.04;100.00;100825.81;6041900;28;20033;-65
2023/06/17 04:53:38;;;;;;;32.65;16.42;;;;;;;14.20;100.00;100823.16;6049341;28;20351;-65
2023/06/17 04:56:34;;;;;;;37.33;18.08;;;;;;;14.30;100.00;100825.63;6052121;28;20381;-65
2023/06/17 04:59:29;;;;;;;27.60;14.43;;;;;;;14.43;100.00;100825.16;6052783;28;20055;-65
2023/06/17 05:02:24;;;;;;;39.97;15.07;;;;;;;14.41;100.00;100828.00;6031862;28;20045;-65
2023/06/17 05:05:20;;;;;;;27.67;14.60;;;;;;;14.46;100.00;100830.19;6035070;28;20108;-66
2023/06/17 05:08:15;;;;;;;34.90;15.52;;;;;;;14.60;100.00;100838.31;6052527;28;20018;-65
2023/06/17 05:11:10;;;;;;;30.80;15.70;;;;;;;14.73;100.00;100835.94;6050857;28;20384;-65
2023/06/17 05:14:06;;;;;;;34.00;15.25;;;;;;;14.69;100.00;100836.47;6045665;28;20037;-65
2023/06/17 05:17:02;;;;;;;29.58;15.65;;;;;;;14.71;100.00;100845.13;6052179;28;20041;-66
2023/06/17 05:19:57;;;;;;;28.20;14.68;;;;;;;15.02;100.00;100845.25;6037388;28;20042;-65
2023/06/17 05:22:53;;;;;;;29.23;14.87;;;;;;;14.85;100.00;100836.44;6048961;28;20097;-65
2023/06/17 05:25:48;;;;;;;32.87;15.70;;;;;;;14.94;100.00;100840.75;6046183;28;20101;-66
2023/06/17 05:28:44;;;;;;;26.17;14.67;;;;;;;14.88;100.00;100830.75;6032410;28;20034;-65
2023/06/17 05:31:39;;;;;;;25.55;14.30;;;;;;;14.77;100.00;100828.44;6050234;28;20021;-65
2023/06/17 05:34:34;;;;;;;25.98;14.30;;;;;;;14.78;100.00;100836.28;6028401;28;20569;-66
2023/06/17 05:37:31;;;;;;;24.20;12.67;;;;;;;14.93;100.00;100832.91;6028933;28;20041;-66
2023/06/17 05:40:27;;;;;;;21.30;13.13;;;;;;;15.10;100.00;100834.53;6032078;28;20029;-66
2023/06/17 05:43:25;;;;;;;26.73;14.40;;;;;;;15.30;100.00;100846.50;6048520;28;20034;-66
2023/06/17 05:46:21;;;;;;;29.52;12.93;;;;;;;15.28;100.00;100843.97;6051391;28;20062;-65
2023/06/17 05:49:16;;;;;;;22.17;13.53;;;;;;;15.31;100.00;100840.97;6051263;28;20380;-66
2023/06/17 05:52:11;;;;;;;26.40;13.90;;;;;;;15.30;100.00;100849.97;6038267;28;20018;-65
2023/06/17 05:55:07;;;;;;;25.40;13.73;;;;;;;15.30;100.00;100838.47;6041961;28;20116;-66
2023/06/17 05:58:02;;;;;;;22.70;14.70;;;;;;;15.51;100.00;100846.75;6035812;28;20373;-65
2023/06/17 06:00:58;;;;;;;23.35;13.57;;;;;;;15.63;100.00;100831.97;6040362;28;20462;-66
2023/06/17 06:03:53;;;;;;;29.57;13.17;;;;;;;15.87;100.00;100847.06;6036010;28;20045;-66
2023/06/17 06:06:48;;;;;;;26.60;13.20;;;;;;;16.01;100.00;100851.63;6016309;28;20030;-66
2023/06/17 06:09:44;;;;;;;26.83;13.97;;;;;;;15.97;100.00;100839.63;6032233;28;20072;-66
2023/06/17 06:12:39;;;;;;;25.00;12.73;;;;;;;16.00;100.00;100837.44;6035630;28;20021;-66
2023/06/17 06:15:35;;;;;;;25.50;12.95;;;;;;;16.33;100.00;100846.06;6035615;28;20765;-65
2023/06/17 06:18:30;;;;;;;23.20;13.03;;;;;;;16.40;100.00;100852.34;6050821;28;20432;-66
2023/06/17 06:21:26;;;;;;;22.38;12.13;;;;;;;16.66;100.00;100846.59;6034966;28;20543;-66
2023/06/17 06:24:21;;;;;;;18.93;11.93;;;;;;;16.78;100.00;100845.16;6030542;28;20040;-66
2023/06/17 06:27:16;;;;;;;22.03;11.80;;;;;;;16.75;100.00;100855.41;6013544;28;20037;-66
2023/06/17 06:30:12;;;;;;;21.75;12.43;;;;;;;16.81;98.52;100854.66;6028749;28;20040;-65
2023/06/17 06:33:08;;;;;;;21.70;12.98;;;;;;;16.98;98.18;100862.38;6037602;28;20373;-65
2023/06/17 06:36:03;;;;;;;20.73;11.87;;;;;;;16.73;98.90;100858.28;6035987;28;20101;-65
2023/06/17 06:38:58;;;;;;;26.20;14.48;;;;;;;16.63;100.00;100863.06;6030772;28;20034;-66
2023/06/17 06:41:54;;;;;;;20.03;12.80;;;;;;;16.57;100.00;100859.25;6018065;28;20034;-66
2023/06/17 06:44:49;;;;;;;21.67;12.57;;;;;;;16.77;99.80;100853.38;6030430;28;20033;-67
2023/06/17 06:47:45;;;;;;;21.40;12.90;;;;;;;16.81;98.90;100863.53;6032501;28;20058;-66
2023/06/17 06:50:40;;;;;;;25.38;13.55;;;;;;;16.84;98.22;100875.75;6046116;28;20076;-65
2023/06/17 06:53:35;;;;;;;25.20;12.65;;;;;;;16.88;98.92;100874.34;6025147;28;20088;-66
2023/06/17 06:56:31;;;;;;;26.67;13.10;;;;;;;16.86;97.50;100874.53;6041461;28;20382;-66
2023/06/17 06:59:26;;;;;;;31.27;14.00;;;;;;;16.61;98.43;100868.56;6032427;28;20334;-65
2023/06/17 07:02:21;;;;;;;26.00;13.35;;;;;;;16.81;98.21;100886.81;6022748;28;20027;-66
2023/06/17 07:05:17;;;;;;;26.63;12.80;;;;;;;16.84;97.87;100891.81;6027585;28;20655;-66
2023/06/17 07:08:12;;;;;;;26.93;14.70;;;;;;;16.86;97.63;100871.03;6039337;28;20671;-65
2023/06/17 07:11:07;;;;;;;25.33;13.37;;;;;;;16.83;96.59;100879.41;6039708;28;20104;-65
2023/06/17 07:14:03;;;;;;;27.30;13.80;;;;;;;16.99;96.72;100889.97;6044899;28;20033;-66
2023/06/17 07:16:58;;;;;;;30.10;13.40;;;;;;;17.12;94.11;100879.47;6015911;28;20049;-66
2023/06/17 07:19:55;;;;;;;29.00;14.60;;;;;;;17.46;91.79;100871.69;6029133;28;20262;-66
2023/06/17 07:22:50;;;;;;;26.30;13.45;;;;;;;17.20;91.29;100887.44;6025377;28;20045;-66
2023/06/17 07:25:45;;;;;;;28.87;12.60;;;;;;;16.98;90.92;100883.81;6039750;28;20031;-66
2023/06/17 07:28:41;;;;;;;27.07;12.97;;;;;;;17.18;91.72;100887.59;6025952;28;20401;-66
2023/06/17 07:31:36;;;;;;;29.30;13.07;;;;;;;17.42;90.57;100893.72;6032272;28;20266;-66
2023/06/17 07:34:31;;;;;;;28.80;14.70;;;;;;;17.33;90.00;100897.50;6032367;28;20371;-66
2023/06/17 07:37:26;;;;;;;27.45;13.65;;;;;;;17.57;89.90;100898.06;6029001;28;20036;-66
2023/06/17 07:40:22;;;;;;;23.73;11.73;;;;;;;17.69;87.68;100896.56;6039932;28;20038;-66
2023/06/17 07:43:17;;;;;;;26.77;12.53;;;;;;;17.52;87.48;100887.03;6027391;28;20026;-66
2023/06/17 07:46:15;;;;;;;27.67;13.60;;;;;;;17.49;87.81;100898.13;6027489;28;20277;-66
2023/06/17 07:49:10;;;;;;;23.02;12.00;;;;;;;17.57;86.70;100903.44;6022300;28;20019;-66
2023/06/17 07:52:06;;;;;;;23.57;12.47;;;;;;;17.59;88.66;100904.06;6024125;28;20039;-66
2023/06/17 07:55:05;;;;;;;26.75;12.35;;;;;;;17.54;88.24;100885.03;6024894;28;20497;-66
2023/06/17 07:58:00;;;;;;;23.63;12.23;;;;;;;17.59;88.13;100901.38;6032224;28;20029;-66
2023/06/17 08:00:55;;;;;;;20.40;11.67;;;;;;;17.53;87.38;100883.34;6034124;28;20111;-66
2023/06/17 08:03:51;;;;;;;23.27;12.23;;;;;;;17.81;87.34;100903.09;6022481;28;20470;-66
2023/06/17 08:06:46;;;;;;;25.20;13.43;;;;;;;17.92;85.32;100899.09;6022032;28;20603;-66
2023/06/17 08:09:41;;;;;;;24.57;12.47;;;;;;;18.14;85.54;100875.81;6026562;28;20038;-66
2023/06/17 08:12:37;;;;;;;26.43;13.00;;;;;;;18.08;84.29;100887.28;6041948;28;20023;-66
2023/06/17 08:15:32;;;;;;;23.50;11.90;;;;;;;18.13;85.11;100896.44;6037723;28;20034;-66
2023/06/17 08:18:27;;;;;;;32.67;14.02;;;;;;;17.74;86.33;100878.06;6025832;28;20431;-66
2023/06/17 08:21:23;;;;;;;24.53;12.57;;;;;;;17.49;86.06;100887.41;6046141;28;20107;-66
2023/06/17 08:24:20;;;;;;;28.23;14.30;;;;;;;17.41;86.05;100892.88;6035276;28;20035;-66
2023/06/17 08:27:15;;;;;;;23.65;12.00;;;;;;;17.36;85.59;100895.28;6026272;28;20531;-66
2023/06/17 08:30:11;;;;;;;23.40;12.57;;;;;;;17.74;83.67;100902.22;6031548;28;20033;-66
2023/06/17 08:33:06;;;;;;;19.77;10.98;;;;;;;17.97;84.72;100904.72;6026338;28;20103;-66
2023/06/17 08:36:02;;;;;;;24.42;11.15;;;;;;;18.32;82.86;100894.97;6030854;28;20462;-66
2023/06/17 08:38:57;;;;;;;24.00;11.77;;;;;;;18.53;80.93;100911.16;6028377;28;20057;-66
2023/06/17 08:41:52;;;;;;;25.30;12.50;;;;;;;18.32;80.30;100911.09;6031115;28;20284;-66
2023/06/17 08:44:48;;;;;;;23.17;12.77;;;;;;;18.40;80.66;100905.59;6032910;28;20053;-66
2023/06/17 08:47:44;;;;;;;26.45;13.60;;;;;;;18.44;80.73;100904.19;6019123;28;20037;-66
2023/06/17 08:50:40;;;;;;;24.83;13.13;;;;;;;18.56;79.73;100908.06;6034369;28;20031;-66
2023/06/17 08:53:35;;;;;;;28.63;13.98;;;;;;;18.55;79.61;100906.41;6054651;28;20880;-66
2023/06/17 08:56:30;;;;;;;22.65;12.20;;;;;;;18.49;79.89;100904.47;6037454;28;20026;-66
2023/06/17 08:59:26;;;;;;;27.50;12.98;;;;;;;18.54;78.49;100902.03;6030772;28;20109;-66
2023/06/17 09:02:21;;;;;;;23.60;11.93;;;;;;;18.58;79.85;100915.94;6029500;28;20039;-65
2023/06/17 09:05:18;;;;;;;21.52;12.80;;;;;;;18.74;80.54;100907.59;6042242;28;20528;-66
2023/06/17 09:08:13;;;;;;;20.25;11.57;;;;;;;19.05;76.67;100907.22;6042193;28;20462;-66
2023/06/17 09:11:09;;;;;;;24.37;11.70;;;;;;;18.58;76.24;100921.28;6024821;28;20038;-66
2023/06/17 09:14:05;;;;;;;21.35;12.85;;;;;;;18.81;76.66;100911.97;6028470;28;20120;-66
2023/06/17 09:17:02;;;;;;;21.05;11.98;;;;;;;19.02;76.01;100903.06;6038852;28;20038;-66
2023/06/17 09:20:11;;;;;;;26.60;12.95;;;;;;;19.01;75.97;100894.16;6047688;28;20033;-65
2023/06/17 09:23:15;;;;;;;22.65;13.40;;;;;;;19.02;76.48;100917.31;6028342;28;20034;-65
2023/06/17 09:26:11;;;;;;;23.75;13.15;;;;;;;19.28;75.87;100911.28;6043846;28;20030;-66
2023/06/17 09:29:08;;;;;;;23.30;12.65;;;;;;;19.37;75.09;100911.97;6021830;28;20031;-65
2023/06/17 09:32:04;;;;;;;20.30;13.10;;;;;;;19.09;75.65;100925.44;6031376;28;20084;-65
2023/06/17 09:34:59;;;;;;;25.42;13.27;;;;;;;18.90;76.91;100915.38;6031170;28;20030;-65
2023/06/17 09:37:55;;;;;;;21.52;12.38;;;;;;;18.99;75.79;100923.09;6041473;28;20022;-66
2023/06/17 09:40:50;;;;;;;23.38;12.15;;;;;;;19.35;75.04;100920.22;6042440;28;20091;-66
2023/06/17 09:43:50;;;;;;;26.30;12.40;;;;;;;19.66;75.03;100911.72;6048137;28;20084;-66
2023/06/17 09:46:46;;;;;;;19.42;12.63;;;;;;;20.40;72.15;100918.00;6050423;28;20358;-66
2023/06/17 09:49:43;;;;;;;19.90;12.02;;;;;;;20.75;66.69;100880.91;6031534;28;20117;-66
2023/06/17 09:52:39;;;;;;;20.77;12.18;;;;;;;21.06;66.95;100920.72;6037899;28;20034;-66
2023/06/17 09:55:36;;;;;;;20.85;12.18;;;;;;;21.29;65.08;100910.34;6049471;28;20362;-66
2023/06/17 09:58:31;;;;;;;21.08;11.95;;;;;;;20.05;68.47;100911.91;6057223;28;20038;-65
2023/06/17 10:01:38;;;;;;;23.17;12.63;;;;;;;20.29;68.90;100897.06;6044547;28;20037;-66
2023/06/17 10:04:34;;;;;;;21.05;12.63;;;;;;;21.02;67.91;100909.53;6027231;28;20357;-66
2023/06/17 10:07:29;;;;;;;18.83;11.63;;;;;;;20.78;68.42;100905.59;6043166;28;20018;-66
2023/06/17 10:10:25;;;;;;;24.20;13.00;;;;;;;20.47;69.31;100905.38;6049677;28;20034;-66
2023/06/17 10:13:21;;;;;;;18.73;11.47;;;;;;;20.17;69.88;100902.19;6041378;28;20038;-67
2023/06/17 10:16:18;;;;;;;17.17;11.18;;;;;;;20.37;69.04;100917.59;6049667;28;20284;-66
2023/06/17 10:19:16;;;;;;;17.85;10.73;;;;;;;21.03;65.01;100899.56;6033549;28;20022;-68
2023/06/17 10:22:13;;;;;;;22.00;11.40;;;;;;;21.27;64.65;100878.19;6047446;28;20109;-66
2023/06/17 10:25:10;;;;;;;21.58;10.93;;;;;;;21.10;66.42;100895.00;6055752;28;20021;-66
2023/06/17 10:28:05;;;;;;;19.92;11.63;;;;;;;20.58;68.64;100888.59;6040964;28;20034;-66
2023/06/17 10:31:18;;;;;;;20.80;11.97;;;;;;;20.56;68.00;100897.91;6050505;28;20033;-66
2023/06/17 10:34:21;;;;;;;19.17;11.05;;;;;;;20.64;68.30;100897.72;6030180;28;20026;-66
2023/06/17 10:37:26;;;;;;;19.13;11.60;;;;;;;20.91;66.60;100883.19;6032411;28;20029;-66
2023/06/17 10:40:30;;;;;;;19.02;12.10;;;;;;;21.23;66.55;100890.41;6049603;28;20389;-66
2023/06/17 10:43:25;;;;;;;17.02;11.43;;;;;;;21.08;66.03;100876.34;6047150;28;20110;-66
2023/06/17 10:46:25;;;;;;;17.58;11.48;;;;;;;21.35;63.98;100882.50;6050288;28;20030;-66
2023/06/17 10:49:20;;;;;;;18.33;10.93;;;;;;;21.61;66.71;100892.38;6050608;28;20109;-66
2023/06/17 10:52:17;;;;;;;18.30;11.52;;;;;;;21.31;68.29;100898.28;6030817;28;20033;-66
2023/06/17 10:55:13;;;;;;;19.20;10.93;;;;;;;21.61;64.06;100873.47;6042545;28;20611;-66
2023/06/17 10:58:09;;;;;;;20.15;11.35;;;;;;;21.32;66.02;100872.97;6038226;28;20037;-66
2023/06/17 11:01:09;;;;;;;17.98;10.63;;;;;;;21.40;66.44;100879.16;6048381;28;20034;-66
2023/06/17 11:04:07;;;;;;;16.92;10.43;;;;;;;21.47;64.82;100877.28;6049510;28;20034;-66
2023/06/17 11:07:04;;;;;;;19.55;9.88;;;;;;;21.72;64.96;100875.50;6050032;28;20028;-66
2023/06/17 11:10:00;;;;;;;17.50;9.93;;;;;;;21.57;65.65;100877.66;6033330;28;20156;-66
2023/06/17 11:12:55;;;;;;;16.20;9.02;;;;;;;21.83;64.59;100869.44;6049924;28;20033;-66
2023/06/17 11:15:54;;;;;;;16.45;10.82;;;;;;;21.97;65.11;100860.25;6039253;28;20073;-66
2023/06/17 11:18:50;;;;;;;14.70;10.07;;;;;;;22.04;64.42;100858.34;6049657;28;20452;-67
2023/06/17 11:21:45;;;;;;;14.53;10.00;;;;;;;21.82;63.35;100862.41;6049835;28;20026;-67
2023/06/17 11:24:43;;;;;;;16.67;9.43;;;;;;;22.13;63.61;100862.44;6043395;28;20027;-66
2023/06/17 11:27:40;;;;;;;14.25;9.23;;;;;;;22.61;60.61;100867.31;6025979;28;20104;-66
2023/06/17 11:30:36;;;;;;;16.13;10.55;;;;;;;22.20;61.93;100854.31;6034754;28;20065;-66
2023/06/17 11:33:32;;;;;;;18.83;11.43;;;;;;;22.32;63.05;100857.94;6041252;28;20469;-66
2023/06/17 11:36:28;;;;;;;18.35;11.95;;;;;;;22.49;62.79;100853.66;6041319;28;20037;-67
2023/06/17 11:39:28;;;;;;;17.65;10.63;;;;;;;22.18;61.84;100824.78;6054259;28;20030;-66
2023/06/17 11:42:23;;;;;;;16.65;10.35;;;;;;;22.39;61.91;100859.53;6036574;28;20093;-67
2023/06/17 11:45:20;;;;;;;15.18;9.70;;;;;;;22.29;62.12;100837.59;6029898;28;20030;-67
2023/06/17 11:48:17;;;;;;;16.75;10.05;;;;;;;22.73;61.08;100850.16;6054274;28;20048;-66
2023/06/17 11:51:16;;;;;;;15.98;9.85;;;;;;;22.81;60.29;100846.34;6054017;28;20152;-67
2023/06/17 11:54:11;;;;;;;16.55;10.73;;;;;;;23.13;60.53;100858.69;6053431;28;20381;-67
2023/06/17 11:57:07;;;;;;;13.90;8.57;;;;;;;22.91;58.73;100835.84;6045355;28;20028;-66
2023/06/17 12:00:05;;;;;;;15.05;9.40;;;;;;;22.80;58.14;100823.06;6041201;28;20072;-66
2023/06/17 12:03:00;;;;;;;16.73;8.98;;;;;;;22.93;56.86;100847.28;6053722;28;20036;-67
2023/06/17 12:05:56;;;;;;;16.05;8.35;;;;;;;23.45;58.46;100835.91;6052997;28;20449;-67
2023/06/17 12:08:56;;;;;;;12.30;7.55;;;;;;;23.81;52.17;100820.63;6052344;28;20057;-67
2023/06/17 12:11:52;;;;;;;15.23;8.77;;;;;;;23.86;53.35;100818.06;6035025;28;20033;-67
2023/06/17 12:14:47;;;;;;;15.02;9.13;;;;;;;23.85;55.68;100821.81;6052618;28;20034;-66
2023/06/17 12:17:45;;;;;;;16.07;10.07;;;;;;;23.87;58.22;100820.53;6029126;28;20042;-67
2023/06/17 12:20:48;;;;;;;17.52;9.45;;;;;;;23.72;57.04;100822.84;6053376;28;20365;-67
2023/06/17 12:23:44;;;;;;;16.60;9.52;;;;;;;23.35;58.23;100811.19;6052931;28;20025;-67
2023/06/17 12:26:40;;;;;;;16.88;9.98;;;;;;;23.56;58.42;100810.72;6045297;28;20485;-66
2023/06/17 12:29:35;;;;;;;19.70;9.27;;;;;;;23.58;56.58;100799.69;6047313;28;20034;-67
2023/06/17 12:32:30;;;;;;;14.87;9.63;;;;;;;23.75;56.78;100805.28;6040432;28;20085;-67
2023/06/17 12:35:26;;;;;;;17.70;10.50;;;;;;;23.50;56.96;100802.72;6040363;28;20054;-67
2023/06/17 12:38:24;;;;;;;15.87;9.77;;;;;;;23.62;56.44;100814.41;6023697;28;20277;-67
2023/06/17 12:41:19;;;;;;;16.77;9.82;;;;;;;24.18;53.47;100803.22;6065547;28;20030;-67
2023/06/17 12:44:17;;;;;;;16.10;9.57;;;;;;;24.62;55.63;100799.94;6052442;28;20076;-67
2023/06/17 12:47:13;;;;;;;12.23;8.50;;;;;;;24.91;54.21;100786.53;6042244;28;20073;-67
2023/06/17 12:50:10;;;;;;;15.93;9.57;;;;;;;25.02;53.33;100797.38;6037118;28;20095;-67
2023/06/17 12:53:05;;;;;;;15.73;10.07;;;;;;;24.78;53.09;100793.84;6052807;28;20024;-68
2023/06/17 12:56:00;;;;;;;15.18;9.30;;;;;;;24.93;53.06;100773.53;6051535;28;20033;-67
2023/06/17 12:58:56;;;;;;;13.97;8.63;;;;;;;25.00;54.26;100764.22;6042186;28;20034;-67
2023/06/17 13:01:51;;;;;;;14.43;8.60;;;;;;;25.16;53.27;100770.78;6052555;28;20257;-67
2023/06/17 13:04:47;;;;;;;13.57;8.60;;;;;;;25.02;51.33;100778.38;6032607;28;20092;-67
2023/06/17 13:07:42;;;;;;;14.57;8.82;;;;;;;24.89;52.49;100754.22;6046125;28;20263;-67
2023/06/17 13:10:37;;;;;;;13.80;9.07;;;;;;;24.90;52.58;100760.44;6037939;28;20512;-67
2023/06/17 13:13:33;;;;;;;14.33;9.27;;;;;;;25.28;52.41;100763.41;6038043;28;20046;-67
2023/06/17 13:16:29;;;;;;;13.00;8.47;;;;;;;25.38;49.81;100748.13;6052138;28;20029;-67
2023/06/17 13:19:24;;;;;;;15.10;9.15;;;;;;;25.69;49.42;100755.00;6064983;28;20277;-67